Time;durP1;ratioP1;P1;durP2;ratioP2;P2;SDS_P1;SDS_P2;PMS_P1;PMS_P2;Temp;Humidity;BMP_temperature;BMP_pressure;BME280_temperature;BME280_humidity;BME280_pressure;Samples;Min_cycle;Max_cycle;Signal;HPM_P1;HPM_P2
2024/04/24 00:00:56;;;;;;;3.55;1.15;;;6.50;99.90;;;;;;5454240;26;20328;-45
2024/04/24 00:03:22;;;;;;;0.82;0.40;;;6.50;99.90;;;;;;5487773;26;20014;-43
2024/04/24 00:05:47;;;;;;;3.35;0.80;;;6.50;99.90;;;;;;5487734;26;20006;-45
2024/04/24 00:08:13;;;;;;;5.53;1.20;;;6.50;99.90;;;;;;5454409;26;20068;-49
2024/04/24 00:10:38;;;;;;;6.28;0.90;;;6.40;99.90;;;;;;5452876;26;20003;-46
2024/04/24 00:13:04;;;;;;;3.45;1.02;;;6.30;99.90;;;;;;5453018;26;19999;-47
2024/04/24 00:15:30;;;;;;;5.57;1.30;;;6.30;99.90;;;;;;5453125;26;20525;-44
2024/04/24 00:17:55;;;;;;;3.58;0.95;;;6.20;99.90;;;;;;5452557;26;20471;-46
2024/04/24 00:20:21;;;;;;;5.60;0.98;;;6.10;99.90;;;;;;5453034;26;20007;-45
2024/04/24 00:22:50;;;;;;;7.93;0.75;;;6.20;99.90;;;;;;5452890;26;20075;-47
2024/04/24 00:25:15;;;;;;;4.13;1.08;;;6.20;99.90;;;;;;5453644;26;20010;-47
2024/04/24 00:27:41;;;;;;;6.32;1.02;;;6.10;99.90;;;;;;5455641;26;20357;-41
2024/04/24 00:30:13;;;;;;;3.50;0.88;;;6.20;99.90;;;;;;5489267;26;20030;-48
2024/04/24 00:32:42;;;;;;;3.47;0.80;;;6.20;99.90;;;;;;5489174;26;19994;-47
2024/04/24 00:35:07;;;;;;;3.88;0.55;;;6.30;99.90;;;;;;5487491;26;20009;-44
2024/04/24 00:37:33;;;;;;;4.68;0.93;;;6.30;99.90;;;;;;5489612;26;20505;-46
2024/04/24 00:39:59;;;;;;;4.68;0.77;;;6.40;99.90;;;;;;5457539;26;19999;-46
2024/04/24 00:42:24;;;;;;;2.95;0.93;;;6.40;99.90;;;;;;5452586;26;20459;-48
2024/04/24 00:44:50;;;;;;;4.13;0.85;;;6.30;99.90;;;;;;5452670;26;20409;-46
2024/04/24 00:47:17;;;;;;;5.25;0.88;;;6.20;99.90;;;;;;5452656;26;20007;-49
2024/04/24 00:49:45;;;;;;;2.78;0.77;;;6.30;99.90;;;;;;5452430;26;20358;-50
2024/04/24 00:52:10;;;;;;;6.23;1.07;;;6.30;99.90;;;;;;5452256;26;20498;-49
2024/04/24 00:54:36;;;;;;;0.98;0.55;;;6.30;99.90;;;;;;5452406;26;19999;-44
2024/04/24 00:57:02;;;;;;;4.78;1.20;;;6.30;99.90;;;;;;5453424;26;20009;-46
2024/04/24 00:59:28;;;;;;;3.83;0.57;;;6.30;99.90;;;;;;5452384;26;20022;-46
2024/04/24 01:01:54;;;;;;;1.15;0.77;;;6.30;99.90;;;;;;5451922;26;19994;-49
2024/04/24 01:04:19;;;;;;;1.58;0.63;;;6.30;99.90;;;;;;5451330;26;20005;-48
2024/04/24 01:06:45;;;;;;;3.85;0.52;;;6.30;99.90;;;;;;5450981;26;20006;-55
2024/04/24 01:09:10;;;;;;;1.70;0.40;;;6.30;99.90;;;;;;5451871;26;20451;-55
2024/04/24 01:11:36;;;;;;;5.57;0.90;;;6.20;99.90;;;;;;5451945;26;20003;-55
2024/04/24 01:14:02;;;;;;;2.20;0.47;;;6.10;99.90;;;;;;5454307;26;20013;-55
2024/04/24 01:16:33;;;;;;;2.80;1.50;;;6.00;99.90;;;;;;5488392;26;20318;-48
2024/04/24 01:19:03;;;;;;;5.85;0.77;;;5.80;99.90;;;;;;5488277;26;20433;-44
2024/04/24 01:21:48;;;;;;;0.70;0.45;;;5.80;99.90;;;;;;5488188;26;20575;-56
2024/04/24 01:24:23;;;;;;;2.35;0.60;;;5.70;99.90;;;;;;5488178;26;19994;-55
2024/04/24 01:26:49;;;;;;;2.53;0.28;;;5.60;99.90;;;;;;5488089;26;20019;-56
2024/04/24 01:29:16;;;;;;;3.90;0.75;;;5.60;99.90;;;;;;5488317;26;20451;-55
2024/04/24 01:31:42;;;;;;;1.88;0.55;;;5.60;99.90;;;;;;5486468;26;20455;-55
2024/04/24 01:34:08;;;;;;;5.22;0.70;;;5.60;99.90;;;;;;5488132;26;20455;-55
2024/04/24 01:36:34;;;;;;;9.27;1.30;;;5.50;99.90;;;;;;5488004;26;20356;-56
2024/04/24 01:39:00;;;;;;;2.95;0.50;;;5.30;99.90;;;;;;5470205;26;20144;-57
2024/04/24 01:41:26;;;;;;;13.65;0.90;;;5.20;99.90;;;;;;5451525;26;20444;-55
2024/04/24 01:43:52;;;;;;;4.45;0.80;;;5.00;99.90;;;;;;5451740;26;20010;-54
2024/04/24 01:46:18;;;;;;;5.85;0.88;;;4.90;99.90;;;;;;5451427;26;19999;-55
2024/04/24 01:48:43;;;;;;;2.88;0.50;;;4.90;99.90;;;;;;5452592;26;19995;-55
2024/04/24 01:51:09;;;;;;;2.10;0.40;;;5.00;99.90;;;;;;5451345;26;19995;-55
2024/04/24 01:53:35;;;;;;;1.60;0.50;;;5.10;99.90;;;;;;5451400;26;20452;-52
2024/04/24 01:56:01;;;;;;;4.93;0.60;;;5.10;99.90;;;;;;5451399;26;20556;-56
2024/04/24 01:58:27;;;;;;;0.63;0.50;;;5.10;99.90;;;;;;5451261;26;20032;-55
2024/04/24 02:00:52;;;;;;;4.65;1.17;;;5.00;99.90;;;;;;5451148;26;20032;-67
2024/04/24 02:03:18;;;;;;;5.97;1.33;;;5.10;99.90;;;;;;5470818;26;19998;-55
2024/04/24 02:05:44;;;;;;;3.40;0.47;;;5.10;99.90;;;;;;5449394;26;20401;-56
2024/04/24 02:08:09;;;;;;;3.40;0.60;;;5.00;99.90;;;;;;5457513;26;20023;-56
2024/04/24 02:10:35;;;;;;;8.65;1.10;;;5.10;99.90;;;;;;5457929;26;20027;-54
2024/04/24 02:13:00;;;;;;;4.07;0.65;;;5.10;99.90;;;;;;5480408;26;20001;-56
2024/04/24 02:15:26;;;;;;;3.88;1.00;;;5.10;99.90;;;;;;5482532;26;19994;-57
2024/04/24 02:17:52;;;;;;;7.75;0.73;;;5.20;99.90;;;;;;5452434;26;20343;-56
2024/04/24 02:20:17;;;;;;;6.13;0.90;;;5.20;99.90;;;;;;5454952;26;20005;-56
2024/04/24 02:22:43;;;;;;;9.35;0.80;;;5.20;99.90;;;;;;5463375;26;20405;-56
2024/04/24 02:27:54;;;;;;;4.68;0.73;;;5.20;99.90;;;;;;5481926;26;20070;-47
2024/04/24 02:30:19;;;;;;;4.72;0.50;;;5.20;99.90;;;;;;5452618;26;20469;-53
2024/04/24 02:32:45;;;;;;;2.75;0.80;;;5.20;99.90;;;;;;5454451;26;20009;-47
2024/04/24 02:35:12;;;;;;;5.07;0.88;;;5.20;99.90;;;;;;5453226;26;20002;-51
2024/04/24 02:37:37;;;;;;;2.55;0.43;;;5.10;99.90;;;;;;5454677;26;20483;-45
2024/04/24 02:40:03;;;;;;;8.35;1.08;;;5.10;99.90;;;;;;5454124;26;19999;-50
2024/04/24 02:42:29;;;;;;;6.13;0.68;;;5.20;99.90;;;;;;5461918;26;19998;-45
2024/04/24 02:44:55;;;;;;;2.78;0.77;;;5.20;99.90;;;;;;5454025;26;19998;-47
2024/04/24 02:47:20;;;;;;;3.72;0.60;;;5.10;99.90;;;;;;5454590;26;19999;-51
2024/04/24 02:49:46;;;;;;;9.82;0.65;;;5.10;99.90;;;;;;5454020;26;20372;-46
2024/04/24 02:52:11;;;;;;;5.10;1.08;;;5.10;99.90;;;;;;5470528;26;20002;-44
2024/04/24 02:54:37;;;;;;;6.82;0.50;;;5.10;99.90;;;;;;5490581;26;20010;-50
2024/04/24 02:57:02;;;;;;;4.05;0.73;;;5.10;99.90;;;;;;5490405;26;20008;-45
2024/04/24 02:59:28;;;;;;;4.88;1.33;;;5.10;99.90;;;;;;5459480;26;20063;-44
2024/04/24 03:01:54;;;;;;;7.57;0.70;;;5.00;99.90;;;;;;5454062;26;20309;-44
2024/04/24 03:04:19;;;;;;;16.85;1.02;;;5.00;99.90;;;;;;5454021;26;20075;-47
2024/04/24 03:06:45;;;;;;;1.75;0.57;;;5.00;99.90;;;;;;5463087;26;20591;-42
2024/04/24 03:09:11;;;;;;;4.28;0.38;;;4.90;99.90;;;;;;5488547;26;20475;-48
2024/04/24 03:11:40;;;;;;;2.38;0.65;;;4.90;99.90;;;;;;5490049;26;20439;-44
2024/04/24 03:14:06;;;;;;;0.88;0.43;;;4.80;99.90;;;;;;5490165;26;20010;-42
2024/04/24 03:16:32;;;;;;;4.78;0.90;;;4.90;99.90;;;;;;5489062;26;20439;-58
2024/04/24 03:18:58;;;;;;;5.78;0.65;;;4.90;99.90;;;;;;5490092;26;20519;-43
2024/04/24 03:21:24;;;;;;;5.90;0.60;;;4.90;99.90;;;;;;5487109;26;20071;-48
2024/04/24 03:23:50;;;;;;;7.90;0.82;;;4.90;99.90;;;;;;5482838;26;20009;-44
2024/04/24 03:26:16;;;;;;;4.90;0.50;;;5.00;99.90;;;;;;5453652;26;20335;-42
2024/04/24 03:28:41;;;;;;;1.58;0.32;;;5.00;99.90;;;;;;5453508;26;20006;-44
2024/04/24 03:31:07;;;;;;;4.38;0.93;;;5.00;99.90;;;;;;5452023;26;20351;-48
2024/04/24 03:33:33;;;;;;;5.95;0.40;;;5.00;99.90;;;;;;5453935;26;20369;-45
2024/04/24 03:35:59;;;;;;;4.93;0.47;;;5.10;99.90;;;;;;5453915;26;20324;-52
2024/04/24 03:38:24;;;;;;;1.50;0.60;;;5.10;99.90;;;;;;5480616;26;19998;-54
2024/04/24 03:40:50;;;;;;;7.00;0.80;;;5.10;99.90;;;;;;5489704;26;19998;-54
2024/04/24 03:43:19;;;;;;;4.38;0.90;;;5.10;99.90;;;;;;5489733;26;20005;-54
2024/04/24 03:45:45;;;;;;;6.88;0.77;;;5.10;99.90;;;;;;5487857;26;20026;-55
2024/04/24 03:48:12;;;;;;;5.15;0.85;;;5.10;99.90;;;;;;5463093;26;19998;-53
2024/04/24 03:50:38;;;;;;;5.07;0.68;;;5.10;99.90;;;;;;5453100;26;19999;-52
2024/04/24 03:53:04;;;;;;;3.50;0.47;;;5.00;99.90;;;;;;5471369;26;19995;-57
2024/04/24 03:55:29;;;;;;;7.30;0.88;;;5.10;99.90;;;;;;5487839;26;20342;-54
2024/04/24 03:57:55;;;;;;;11.63;0.93;;;5.10;99.90;;;;;;5465585;26;19995;-53
2024/04/24 04:00:21;;;;;;;4.55;0.75;;;5.20;99.90;;;;;;5451295;26;20006;-54
2024/04/24 04:02:46;;;;;;;2.28;0.47;;;5.20;99.90;;;;;;5482630;26;19994;-54
2024/04/24 04:05:12;;;;;;;2.95;0.70;;;5.20;99.90;;;;;;5487655;26;20002;-53
2024/04/24 04:07:38;;;;;;;12.25;1.17;;;5.20;99.90;;;;;;5479927;26;20408;-51
2024/04/24 04:10:04;;;;;;;7.72;0.50;;;5.20;99.90;;;;;;5451419;26;19999;-50
2024/04/24 04:12:29;;;;;;;1.85;1.08;;;5.10;99.90;;;;;;5452901;26;20328;-46
2024/04/24 04:14:55;;;;;;;0.10;0.10;;;5.20;99.90;;;;;;5481582;26;20003;-54
2024/04/24 04:17:20;;;;;;;6.30;1.00;;;5.20;99.90;;;;;;5452731;26;19999;-54
2024/04/24 04:19:46;;;;;;;3.08;0.60;;;5.20;99.90;;;;;;5451073;26;20320;-56
2024/04/24 04:22:12;;;;;;;2.85;0.40;;;5.10;99.90;;;;;;5450874;26;19997;-54
2024/04/24 04:24:37;;;;;;;0.77;0.30;;;5.20;99.90;;;;;;5487029;26;19994;-52
2024/04/24 04:27:03;;;;;;;3.63;1.65;;;5.30;99.90;;;;;;5489262;26;20005;-52
2024/04/24 04:29:29;;;;;;;2.63;0.45;;;5.30;99.90;;;;;;5489425;26;20580;-52
2024/04/24 04:31:54;;;;;;;3.03;0.60;;;5.20;99.90;;;;;;5486996;26;20013;-54
2024/04/24 04:34:20;;;;;;;5.57;0.52;;;5.30;99.90;;;;;;5456427;26;20524;-54
2024/04/24 04:36:46;;;;;;;2.22;0.80;;;5.30;99.90;;;;;;5450820;26;20013;-52
2024/04/24 04:39:12;;;;;;;1.15;0.50;;;5.30;99.90;;;;;;5476318;26;20006;-52
2024/04/24 04:41:37;;;;;;;3.10;0.43;;;5.30;99.90;;;;;;5488095;26;20069;-57
2024/04/24 04:44:03;;;;;;;3.67;0.63;;;5.30;99.90;;;;;;5460931;26;19999;-54
2024/04/24 04:46:29;;;;;;;3.97;0.82;;;5.30;99.90;;;;;;5452647;26;20344;-57
2024/04/24 04:48:54;;;;;;;1.58;0.80;;;5.30;99.90;;;;;;5450651;26;20007;-56
2024/04/24 04:51:20;;;;;;;3.97;0.75;;;5.20;99.90;;;;;;5452319;26;20003;-55
2024/04/24 04:53:46;;;;;;;5.35;0.50;;;5.30;99.90;;;;;;5451114;26;20011;-58
2024/04/24 04:56:11;;;;;;;4.63;0.90;;;5.30;99.90;;;;;;5452431;26;19994;-64
2024/04/24 04:58:37;;;;;;;1.83;1.00;;;5.30;99.90;;;;;;5452645;26;19999;-55
2024/04/24 05:01:03;;;;;;;6.85;0.75;;;5.30;99.90;;;;;;5455820;26;20010;-56
2024/04/24 05:03:28;;;;;;;4.82;0.80;;;5.40;99.90;;;;;;5488472;26;20038;-55
2024/04/24 05:05:56;;;;;;;3.58;0.40;;;5.50;99.90;;;;;;5486655;26;19994;-53
2024/04/24 05:08:21;;;;;;;7.53;1.10;;;5.60;99.90;;;;;;5469730;26;20028;-56
2024/04/24 05:10:47;;;;;;;10.43;1.20;;;5.50;99.90;;;;;;5452102;26;20216;-44
2024/04/24 05:13:13;;;;;;;3.13;0.77;;;5.50;99.90;;;;;;5452141;26;19995;-47
2024/04/24 05:15:39;;;;;;;4.88;1.02;;;5.40;99.90;;;;;;5463472;26;20357;-45
2024/04/24 05:18:05;;;;;;;8.57;1.70;;;5.50;99.90;;;;;;5471730;26;20451;-43
2024/04/24 05:20:31;;;;;;;7.35;0.80;;;5.50;99.90;;;;;;5452130;26;20010;-45
2024/04/24 05:23:05;;;;;;;9.63;1.23;;;5.50;99.90;;;;;;5449994;26;20343;-45
2024/04/24 05:25:36;;;;;;;6.82;0.93;;;5.50;99.90;;;;;;5451795;26;19999;-49
2024/04/24 05:30:49;;;;;;;12.77;1.45;;;5.60;99.90;;;;;;5451543;26;20022;-48
2024/04/24 05:33:15;;;;;;;9.38;0.77;;;5.60;99.90;;;;;;5451877;26;19995;-49
2024/04/24 05:35:41;;;;;;;9.38;1.13;;;5.60;99.90;;;;;;5451689;26;20015;-47
2024/04/24 05:38:06;;;;;;;5.35;1.08;;;5.60;99.90;;;;;;5480716;26;19998;-46
2024/04/24 05:40:32;;;;;;;2.47;0.85;;;5.50;99.90;;;;;;5487629;26;19994;-44
2024/04/24 05:42:57;;;;;;;9.13;0.80;;;5.50;99.90;;;;;;5469782;26;19995;-45
2024/04/24 05:45:23;;;;;;;8.40;1.33;;;5.50;99.90;;;;;;5451300;26;20128;-45
2024/04/24 05:47:49;;;;;;;9.48;1.52;;;5.70;99.90;;;;;;5451359;26;20003;-46
2024/04/24 05:50:14;;;;;;;10.63;1.48;;;5.80;99.90;;;;;;5451308;26;20007;-45
2024/04/24 05:52:40;;;;;;;15.07;1.27;;;5.80;99.90;;;;;;5477917;26;20327;-47
2024/04/24 05:55:06;;;;;;;9.05;1.23;;;5.90;99.90;;;;;;5491316;26;20006;-44
2024/04/24 05:57:31;;;;;;;2.75;0.98;;;5.90;99.90;;;;;;5491195;26;20317;-48
2024/04/24 05:59:57;;;;;;;7.80;1.05;;;5.90;99.90;;;;;;5491376;26;20009;-45
2024/04/24 06:02:23;;;;;;;9.50;1.58;;;5.90;99.90;;;;;;5489836;26;19994;-47
2024/04/24 06:04:50;;;;;;;3.08;1.00;;;6.00;99.90;;;;;;5491084;26;20403;-55
2024/04/24 06:07:16;;;;;;;4.65;1.05;;;6.10;99.90;;;;;;5488181;26;20030;-60
2024/04/24 06:09:42;;;;;;;12.10;1.27;;;6.20;99.90;;;;;;5491080;26;19994;-50
2024/04/24 06:12:07;;;;;;;19.08;2.97;;;6.40;99.90;;;;;;5467659;26;19995;-57
2024/04/24 06:14:33;;;;;;;11.23;1.20;;;6.30;99.90;;;;;;5454019;26;20305;-53
2024/04/24 06:16:59;;;;;;;1.45;0.63;;;6.20;99.90;;;;;;5454391;26;20027;-51
2024/04/24 06:19:24;;;;;;;1.58;0.70;;;6.20;99.90;;;;;;5454422;26;20341;-51
2024/04/24 06:21:50;;;;;;;11.30;1.40;;;6.20;99.90;;;;;;5475975;26;20002;-56
2024/04/24 06:24:15;;;;;;;6.63;0.77;;;6.30;99.90;;;;;;5490927;26;20462;-54
2024/04/24 06:26:42;;;;;;;9.52;0.98;;;6.40;99.90;;;;;;5486367;26;19994;-56
2024/04/24 06:29:07;;;;;;;9.40;1.70;;;6.40;99.90;;;;;;5461419;26;19999;-55
2024/04/24 06:31:33;;;;;;;9.27;0.93;;;6.40;99.90;;;;;;5452287;26;20060;-53
2024/04/24 06:33:59;;;;;;;12.70;1.63;;;6.40;99.90;;;;;;5470460;26;20006;-55
2024/04/24 06:36:24;;;;;;;4.35;1.40;;;6.50;99.90;;;;;;5454244;26;19995;-53
2024/04/24 06:38:51;;;;;;;4.53;1.33;;;6.50;99.90;;;;;;5454326;26;20009;-54
2024/04/24 06:41:17;;;;;;;7.18;0.90;;;6.50;99.90;;;;;;5454092;26;20014;-55
2024/04/24 06:43:43;;;;;;;12.13;1.73;;;6.60;99.90;;;;;;5454181;26;19995;-55
2024/04/24 06:46:08;;;;;;;5.30;1.50;;;6.80;99.90;;;;;;5465742;26;19994;-53
2024/04/24 06:48:34;;;;;;;16.85;1.17;;;7.00;99.90;;;;;;5490605;26;20338;-54
2024/04/24 06:50:59;;;;;;;2.33;1.13;;;7.10;99.90;;;;;;5487355;26;20009;-52
2024/04/24 06:53:26;;;;;;;8.30;1.30;;;7.20;99.90;;;;;;5490474;26;19994;-54
2024/04/24 06:55:52;;;;;;;9.13;0.85;;;7.20;99.90;;;;;;5507219;26;19995;-55
2024/04/24 06:58:17;;;;;;;6.15;1.05;;;7.30;99.90;;;;;;5454051;26;20131;-57
2024/04/24 07:00:43;;;;;;;2.58;0.80;;;7.30;99.90;;;;;;5453814;26;19994;-60
2024/04/24 07:03:09;;;;;;;1.80;1.02;;;7.30;99.90;;;;;;5463139;26;20461;-55
2024/04/24 07:05:34;;;;;;;5.85;0.70;;;7.30;99.90;;;;;;5453742;26;20036;-53
2024/04/24 07:08:01;;;;;;;9.98;0.88;;;7.30;99.90;;;;;;5480702;26;20009;-53
2024/04/24 07:10:27;;;;;;;2.47;0.85;;;7.30;99.90;;;;;;5488473;26;20008;-52
2024/04/24 07:12:52;;;;;;;11.75;1.40;;;7.50;99.90;;;;;;5469761;26;19995;-57
2024/04/24 07:15:18;;;;;;;8.35;1.98;;;7.60;99.90;;;;;;5453798;26;19999;-57
2024/04/24 07:17:44;;;;;;;4.53;0.75;;;7.70;99.90;;;;;;5453779;26;19999;-50
2024/04/24 07:20:09;;;;;;;5.15;0.80;;;7.90;99.90;;;;;;5485982;26;20009;-43
2024/04/24 07:22:35;;;;;;;8.95;1.10;;;8.00;99.90;;;;;;5487079;26;20121;-44
2024/04/24 07:25:01;;;;;;;4.00;0.82;;;8.20;99.90;;;;;;5490249;26;20067;-45
2024/04/24 07:27:26;;;;;;;5.15;1.05;;;8.20;99.90;;;;;;5489915;26;19994;-45
2024/04/24 07:29:52;;;;;;;19.52;2.30;;;8.40;99.90;;;;;;5489000;26;19994;-45
2024/04/24 07:32:18;;;;;;;6.70;1.27;;;8.40;99.90;;;;;;5475289;26;20010;-44
2024/04/24 07:34:43;;;;;;;12.43;1.70;;;8.30;99.90;;;;;;5453456;26;20010;-47
2024/04/24 07:37:09;;;;;;;16.35;1.65;;;8.10;99.90;;;;;;5452455;26;20003;-44
2024/04/24 07:39:35;;;;;;;10.82;1.45;;;7.80;99.90;;;;;;5453485;26;19995;-42
2024/04/24 07:42:00;;;;;;;4.68;1.00;;;7.50;99.90;;;;;;5453394;26;20016;-41
2024/04/24 07:44:26;;;;;;;5.65;0.52;;;7.20;99.90;;;;;;5453296;26;19999;-46
2024/04/24 07:46:52;;;;;;;2.15;0.50;;;6.80;99.90;;;;;;5453222;26;20025;-47
2024/04/24 07:49:17;;;;;;;7.25;1.27;;;6.70;99.90;;;;;;5453309;26;20499;-46
2024/04/24 07:51:43;;;;;;;3.88;1.75;;;6.40;99.90;;;;;;5455151;26;20063;-45
2024/04/24 07:54:09;;;;;;;9.60;2.13;;;6.30;99.90;;;;;;5481916;26;20001;-61
2024/04/24 07:56:34;;;;;;;8.63;0.60;;;6.20;99.90;;;;;;5452794;26;19994;-45
2024/04/24 07:59:01;;;;;;;4.45;0.63;;;6.10;99.90;;;;;;5482738;26;20358;-43
2024/04/24 08:01:27;;;;;;;6.65;0.90;;;6.20;99.90;;;;;;5479875;26;20481;-43
2024/04/24 08:03:52;;;;;;;7.55;0.70;;;6.20;99.90;;;;;;5484277;26;19994;-46
2024/04/24 08:06:18;;;;;;;6.13;1.20;;;6.60;99.90;;;;;;5489430;26;19994;-42
2024/04/24 08:08:43;;;;;;;7.32;1.08;;;7.00;99.90;;;;;;5489402;26;20020;-39
2024/04/24 08:11:09;;;;;;;7.78;0.75;;;7.40;99.90;;;;;;5481507;26;19991;-43
2024/04/24 08:13:35;;;;;;;2.00;0.65;;;7.50;99.90;;;;;;5453195;26;20402;-43
2024/04/24 08:16:01;;;;;;;7.55;1.65;;;7.60;99.90;;;;;;5451372;26;20002;-42
2024/04/24 08:18:26;;;;;;;5.43;0.88;;;7.60;99.90;;;;;;5452875;26;20035;-56
2024/04/24 08:20:54;;;;;;;2.40;0.63;;;7.70;99.90;;;;;;5454023;26;19994;-55
2024/04/24 08:23:19;;;;;;;7.25;1.27;;;7.60;99.90;;;;;;5477600;26;19995;-53
2024/04/24 08:25:45;;;;;;;5.85;1.02;;;7.60;99.90;;;;;;5452787;26;19991;-54
2024/04/24 08:28:11;;;;;;;7.88;1.30;;;7.60;99.90;;;;;;5452927;26;20009;-43
2024/04/24 08:30:36;;;;;;;3.55;1.33;;;7.70;99.90;;;;;;5483403;26;20006;-44
2024/04/24 08:33:02;;;;;;;6.97;0.85;;;7.90;99.90;;;;;;5489575;26;20485;-48
2024/04/24 08:35:28;;;;;;;7.53;1.00;;;8.00;99.90;;;;;;5489044;26;20002;-39
2024/04/24 08:37:54;;;;;;;6.60;1.20;;;8.20;99.90;;;;;;5478784;26;20451;-45
2024/04/24 08:40:19;;;;;;;10.75;0.80;;;8.20;99.90;;;;;;5486510;26;20019;-46
2024/04/24 08:42:45;;;;;;;11.32;1.23;;;8.40;99.90;;;;;;5487267;26;19994;-44
2024/04/24 08:45:15;;;;;;;3.55;0.70;;;8.50;99.90;;;;;;5489000;26;20319;-45
2024/04/24 08:47:41;;;;;;;7.82;1.33;;;8.60;99.90;;;;;;5476382;26;20535;-45
2024/04/24 08:50:07;;;;;;;6.85;0.90;;;9.00;99.90;;;;;;5506466;26;19995;-44
2024/04/24 08:52:36;;;;;;;5.72;1.27;;;9.00;99.90;;;;;;5469857;26;20002;-37
2024/04/24 08:55:03;;;;;;;2.55;0.98;;;9.00;99.90;;;;;;5488700;26;19990;-54
2024/04/24 08:57:31;;;;;;;3.77;0.90;;;8.90;99.90;;;;;;5485378;26;19990;-49
2024/04/24 09:00:01;;;;;;;4.53;1.30;;;8.90;99.90;;;;;;5420965;26;20216;-56
2024/04/24 09:02:32;;;;;;;3.28;1.17;;;9.00;99.90;;;;;;5452433;26;20003;-55
2024/04/24 09:04:59;;;;;;;9.75;0.80;;;9.00;99.90;;;;;;5452433;26;20467;-52
2024/04/24 09:07:25;;;;;;;10.20;0.85;;;8.90;99.90;;;;;;5457246;26;20067;-52
2024/04/24 09:09:53;;;;;;;5.10;0.52;;;8.40;99.90;;;;;;5480574;26;20404;-50
2024/04/24 09:12:19;;;;;;;1.53;0.70;;;8.20;99.90;;;;;;5458127;26;19998;-51
2024/04/24 09:14:46;;;;;;;1.35;0.65;;;8.40;99.90;;;;;;5471372;26;20006;-50
2024/04/24 09:17:12;;;;;;;2.17;0.88;;;8.40;99.90;;;;;;5449943;26;20009;-48
2024/04/24 09:19:39;;;;;;;1.80;0.85;;;8.40;99.90;;;;;;5464244;26;20011;-54
2024/04/24 09:22:05;;;;;;;3.97;0.73;;;8.80;99.90;;;;;;5481274;26;20030;-54
2024/04/24 09:24:31;;;;;;;5.75;0.70;;;9.40;99.90;;;;;;5451898;26;20010;-61
2024/04/24 09:26:57;;;;;;;6.10;0.88;;;9.80;99.90;;;;;;5451530;26;20035;-56
2024/04/24 09:29:22;;;;;;;2.17;0.60;;;10.20;99.90;;;;;;5451550;26;19999;-56
2024/04/24 09:31:48;;;;;;;2.47;0.70;;;10.60;99.90;;;;;;5466802;26;20010;-55
2024/04/24 09:34:14;;;;;;;1.70;0.75;;;11.10;99.90;;;;;;5451620;26;20405;-57
2024/04/24 09:36:42;;;;;;;2.40;0.60;;;11.10;99.90;;;;;;5451651;26;20017;-51
2024/04/24 09:39:08;;;;;;;5.47;0.77;;;11.30;99.90;;;;;;5482976;26;19994;-55
2024/04/24 09:41:34;;;;;;;3.10;0.75;;;11.40;99.90;;;;;;5483404;26;20005;-55
2024/04/24 09:44:01;;;;;;;0.98;0.57;;;11.50;99.90;;;;;;5452085;26;20452;-53
2024/04/24 09:46:30;;;;;;;4.70;1.35;;;12.00;99.90;;;;;;5451502;26;20464;-54
2024/04/24 09:48:56;;;;;;;2.13;0.43;;;12.10;99.90;;;;;;5451183;26;20327;-53
2024/04/24 09:51:22;;;;;;;7.97;1.33;;;11.50;99.90;;;;;;5449494;26;19999;-68
2024/04/24 09:53:47;;;;;;;0.77;0.47;;;10.50;99.90;;;;;;5461091;26;20388;-53
2024/04/24 09:56:21;;;;;;;4.03;0.88;;;9.70;99.90;;;;;;5453266;26;19998;-53
2024/04/24 09:58:50;;;;;;;4.38;0.40;;;9.40;99.90;;;;;;5452868;26;20006;-56
2024/04/24 10:01:18;;;;;;;1.70;0.70;;;9.70;99.90;;;;;;5486014;26;20461;-42
2024/04/24 10:03:47;;;;;;;1.98;0.35;;;10.00;99.90;;;;;;5487575;26;20483;-44
2024/04/24 10:06:16;;;;;;;3.90;0.57;;;10.20;99.90;;;;;;5487454;26;20005;-40
2024/04/24 10:08:43;;;;;;;3.60;1.00;;;10.30;99.90;;;;;;5487586;26;19998;-40
2024/04/24 10:11:12;;;;;;;2.70;0.70;;;10.30;99.90;;;;;;5482551;26;20446;-57
2024/04/24 10:13:41;;;;;;;0.50;0.43;;;10.40;99.90;;;;;;5451030;26;19999;-52
2024/04/24 10:16:08;;;;;;;9.50;0.93;;;10.70;99.90;;;;;;5451040;26;20009;-63
2024/04/24 10:18:35;;;;;;;7.90;1.33;;;10.70;99.90;;;;;;5452134;26;19999;-57
2024/04/24 10:21:05;;;;;;;2.90;0.65;;;10.40;99.90;;;;;;5473539;26;20450;-51
2024/04/24 10:23:31;;;;;;;3.80;0.60;;;10.30;99.90;;;;;;5486008;26;20526;-51
2024/04/24 10:25:58;;;;;;;3.35;0.80;;;10.50;99.90;;;;;;5487071;26;20002;-55
2024/04/24 10:28:26;;;;;;;5.05;0.93;;;10.60;99.90;;;;;;5487016;26;20034;-54
2024/04/24 10:30:56;;;;;;;3.08;0.68;;;10.50;99.90;;;;;;5484966;26;20074;-53
2024/04/24 10:33:23;;;;;;;1.85;0.60;;;10.20;99.90;;;;;;5456479;26;20010;-56
2024/04/24 10:35:48;;;;;;;3.58;0.90;;;9.80;99.90;;;;;;5451628;26;20362;-54
2024/04/24 10:38:15;;;;;;;2.90;0.63;;;9.50;99.90;;;;;;5450745;26;19995;-55
2024/04/24 10:40:46;;;;;;;5.60;1.00;;;9.60;99.90;;;;;;5454288;26;20009;-53
2024/04/24 10:43:14;;;;;;;8.32;1.40;;;9.50;99.90;;;;;;5473390;26;20070;-50
2024/04/24 10:45:40;;;;;;;3.53;1.00;;;9.50;99.90;;;;;;5490567;26;20379;-52
2024/04/24 10:48:10;;;;;;;10.27;1.02;;;9.80;99.90;;;;;;5479368;26;19999;-55
2024/04/24 10:50:35;;;;;;;9.23;2.30;;;10.40;99.90;;;;;;5452230;26;19998;-53
2024/04/24 10:53:03;;;;;;;7.00;0.90;;;10.90;99.90;;;;;;5453538;26;20523;-52
2024/04/24 10:55:28;;;;;;;6.88;0.98;;;11.10;99.90;;;;;;5452300;26;20452;-53
2024/04/24 10:57:55;;;;;;;7.05;2.45;;;11.20;99.90;;;;;;5454033;26;20067;-55
2024/04/24 11:00:28;;;;;;;7.07;1.17;;;10.90;99.90;;;;;;5454074;26;19999;-49
2024/04/24 11:02:57;;;;;;;21.00;1.20;;;10.30;99.90;;;;;;5454256;26;20038;-54
2024/04/24 11:05:24;;;;;;;9.30;1.40;;;9.70;99.90;;;;;;5452073;26;20025;-51
2024/04/24 11:08:04;;;;;;;13.93;1.03;;;9.00;99.90;;;;;;5452129;26;20068;-51
2024/04/24 11:10:34;;;;;;;18.15;3.17;;;8.70;99.90;;;;;;5454785;26;20220;-54
2024/04/24 11:13:02;;;;;;;2.60;1.50;;;8.50;99.90;;;;;;5453858;26;20006;-52
2024/04/24 11:15:29;;;;;;;10.60;1.92;;;8.80;99.90;;;;;;5453694;26;20335;-55
2024/04/24 11:17:55;;;;;;;15.02;1.45;;;8.90;99.90;;;;;;5451972;26;20010;-69
2024/04/24 11:20:22;;;;;;;2.85;1.27;;;8.90;99.90;;;;;;5453939;26;20444;-52
2024/04/24 11:22:48;;;;;;;4.13;0.87;;;8.90;99.90;;;;;;5453852;26;20362;-53
2024/04/24 11:25:14;;;;;;;13.13;1.40;;;9.20;99.90;;;;;;5453860;26;20006;-54
2024/04/24 11:27:42;;;;;;;10.30;1.65;;;9.70;99.90;;;;;;5454608;26;20014;-54
2024/04/24 11:30:12;;;;;;;;;;;10.10;99.90;;;;;;5454145;26;20006;-54
2024/04/24 11:32:39;;;;;;;10.27;1.38;;;10.40;99.90;;;;;;5452993;26;19935;-55
2024/04/24 11:35:07;;;;;;;4.72;1.85;;;10.90;99.90;;;;;;5453799;26;19998;-52
2024/04/24 11:37:33;;;;;;;7.25;1.33;;;11.20;99.90;;;;;;5454039;26;20424;-51
2024/04/24 11:39:59;;;;;;;7.07;1.08;;;11.20;99.90;;;;;;5453936;26;19999;-51
2024/04/24 11:42:25;;;;;;;6.95;0.95;;;11.00;99.90;;;;;;5453658;26;19999;-54
2024/04/24 11:44:51;;;;;;;9.50;1.48;;;10.50;99.90;;;;;;5483777;26;20467;-54
2024/04/24 11:47:19;;;;;;;3.70;0.82;;;10.30;99.90;;;;;;5489767;26;19998;-55
2024/04/24 11:49:52;;;;;;;4.43;1.23;;;10.10;99.90;;;;;;5489496;26;19998;-54
2024/04/24 11:52:18;;;;;;;4.28;0.90;;;10.20;99.90;;;;;;5489524;26;20338;-52
2024/04/24 11:54:53;;;;;;;7.50;1.23;;;10.40;99.90;;;;;;5489696;26;19998;-52
2024/04/24 11:57:19;;;;;;;7.88;1.27;;;10.80;99.90;;;;;;5489572;26;20002;-54
2024/04/24 11:59:48;;;;;;;5.35;0.98;;;11.00;99.90;;;;;;5489585;26;20332;-50
2024/04/24 12:02:17;;;;;;;11.13;1.20;;;10.90;99.90;;;;;;5453661;26;20002;-53
2024/04/24 12:04:47;;;;;;;2.45;0.70;;;10.40;99.90;;;;;;5453089;26;19999;-54
2024/04/24 12:07:13;;;;;;;11.80;1.00;;;9.90;99.90;;;;;;5453036;26;20451;-53
2024/04/24 12:09:39;;;;;;;5.88;0.80;;;9.60;99.90;;;;;;5452959;26;20037;-54
2024/04/24 12:12:08;;;;;;;7.93;2.10;;;9.40;99.90;;;;;;5452707;26;20459;-53
2024/04/24 12:14:35;;;;;;;3.97;0.63;;;9.30;99.90;;;;;;5452910;26;20002;-52
2024/04/24 12:17:01;;;;;;;9.82;1.33;;;9.20;99.90;;;;;;5453755;26;20049;-54
2024/04/24 12:19:27;;;;;;;6.40;0.93;;;9.40;99.90;;;;;;5452868;26;20489;-56
2024/04/24 12:21:53;;;;;;;2.67;0.47;;;9.80;99.90;;;;;;5452829;26;20003;-54
2024/04/24 12:24:19;;;;;;;11.95;2.03;;;10.00;99.90;;;;;;5452557;26;20011;-55
2024/04/24 12:26:46;;;;;;;5.47;0.65;;;10.20;99.90;;;;;;5452944;26;19995;-56
2024/04/24 12:29:12;;;;;;;7.80;0.80;;;9.70;99.90;;;;;;5452742;26;20446;-57
2024/04/24 12:31:41;;;;;;;2.95;0.77;;;9.30;99.90;;;;;;5452423;26;19998;-65
2024/04/24 12:34:08;;;;;;;11.10;0.77;;;8.90;99.90;;;;;;5457455;26;19995;-54
2024/04/24 12:36:35;;;;;;;4.35;0.80;;;8.80;99.90;;;;;;5475508;26;20067;-56
2024/04/24 12:39:10;;;;;;;1.75;0.73;;;9.20;99.90;;;;;;5475380;26;20475;-55
2024/04/24 12:41:36;;;;;;;1.80;0.60;;;9.70;99.90;;;;;;5488459;26;19994;-50
2024/04/24 12:44:05;;;;;;;5.53;0.88;;;10.20;99.90;;;;;;5452246;26;20054;-57
2024/04/24 12:46:31;;;;;;;2.63;0.77;;;10.10;99.90;;;;;;5452818;26;20320;-53
2024/04/24 12:48:57;;;;;;;3.85;0.85;;;9.60;99.90;;;;;;5452328;26;19999;-56
2024/04/24 12:51:24;;;;;;;5.15;1.35;;;9.40;99.90;;;;;;5460760;26;20342;-51
2024/04/24 12:53:50;;;;;;;4.85;0.90;;;9.10;99.90;;;;;;5487257;26;20013;-53
2024/04/24 12:56:15;;;;;;;3.65;0.70;;;8.80;99.90;;;;;;5454502;26;19995;-54